Lakeland Linder Regional Airport
KLAL : now visible

Airfield :











YOU CAN JOIN US ON...

 
LOGIN :

Register | Disclaimer

   EN    FR    IT 

 









Legend :    VFR   Marginal VFR   IFR   Intensive IFR   Very Intensive IFR
Visi :
Ceiling :
>= 8 km
>= 3000ft
5 to 8 km
1000 to 3000 ft
1500m to 5 km
500 to 1000 ft
800 to 1500m
200 to 500 ft
< 800m
< 200 ft
Symbols :   Thunderstorms  Fog  Heavy snow  Heavy precipitations  Wind > 20 kt






- Airport Elevation : 142 ft


KLAL - Lakeland Linder Regional

CURRENT METAR :
  • 280835Z AUTO 10005KT 10SM SCT007 24/23 A3005 RMK AO2 PNO

EXPIRED METARs :
  • 280815Z AUTO 11008KT 10SM SCT007 24/23 A3004 RMK AO2 PNO
  • 280755Z AUTO 10007KT 10SM CLR 24/23 A3004 RMK AO2 PNO
  • 280735Z AUTO 10007KT 10SM SCT007 25/23 A3004 RMK AO2 PNO
  • 280715Z AUTO 10008KT 10SM SCT009 25/23 A3005 RMK AO2 PNO
  • 280655Z AUTO 10007KT 10SM SCT009 25/23 A3005 RMK AO2 PNO
  • 280635Z AUTO 10008KT 10SM CLR 25/23 A3005 RMK AO2 PNO
  • 280615Z AUTO 10008KT 10SM CLR 24/23 A3006 RMK AO2 PNO
  • 280555Z AUTO 10006KT 10SM SCT008 24/23 A3006 RMK AO2 PNO

TAF KLAL
Valid from the 28 at 06:00 until the 29 at 06:00 UTC


280536Z 2806/2906 09005KT P6SM FEW035 SCT250
FM281600 13010G18KT P6SM FEW035 FEW250
FM290200 12006KT P6SM FEW025 FEW250 AMD NOT SKED TIL 281100
KZMA FIR / North America



MET'MAP, your aeronautical weather chart ! - Copyright ORBIFLY December 2007 - Disclaimer

ORBIFLY MET'MAP TEAM :

Programming & Development : Alexandra Zaïnal
Concept & original design : Baudouin d'Aumeries
Assistance for programming : Marc-Olivier Méhu
Technical & hardware support : Manuel Goepfert

Contact : metmap@orbifly.com




SOURCES & CREDITS :

   NOAA       Earth
Advisory